KAVC

Details ICAO KAVC
Name MECKLENBURG BRUNSWICK RGNL
Region United States
Timezone America/New_York (UTC-5.0)
Plans Departing 0
Arriving 1
Stats Elevation 442 ft / 135 m (AMSL)
Location 36.688288° -78.054468°
Runways 1
Magnetic Variation 9.783° W
Sunrise 2017-12-14 12:18:15 UTC / 2017-12-14 07:18:15 Local
Sunset 2017-12-14 21:58:32 UTC / 2017-12-14 16:58:32 Local
Advertisement - Login to hide

Runways

ID Width Length Bearing (true) Bearing (mag) Surface Threshold Offset Overrun Length
01 75 ft / 23 m 5,013 ft / 1,528 m 357.61° 7.39° Asphalt 0 ft / 0 m 0 ft / 0 m
19 75 ft / 23 m 5,013 ft / 1,528 m 177.61° 187.39° Asphalt 0 ft / 0 m 0 ft / 0 m

Approach Navaids

Runway Type Ident Frequency Range Bearing (true) Bearing (mag) Slope Elevation
01 Localiser IAVC 110.50 MHz 18 nm / 33 km 357.59° 7.37° - 379 ft / 116 m (AMSL)

Map

Weather


0- 5 10 15 20 25 30 35+ Temperature / ° C

Clouds and Precipitation
Forecast for 2017-12-15 00:00 UTC. Updated an hour ago

Ground ~20,000 ft ~40,000 ft Winds

METAR

KAVC 150035Z AUTO 36003KT 10SM CLR 06/M03 A3005 RMK AO2 T00611030

TAF

Not found

Frequencies

Recorded 127.52 MHz AWOS 3
Unicom 122.80 MHz CTAF/UNICOM
Warning: Do not use this data for real-world aviation or navigation. No guarantee of current accuracy is given.